sensor_id;sensor_type;location;lat;lon;timestamp;pressure;altitude;pressure_sealevel;temperature;humidity
42671;BME280;28283;55.426;37.756;2023-04-16T00:05:03;100920.38;;;3.78;29.63
42671;BME280;28283;55.426;37.756;2023-04-16T00:10:03;100917.22;;;3.73;29.47
42671;BME280;28283;55.426;37.756;2023-04-16T00:15:04;100918.31;;;3.70;29.84
42671;BME280;28283;55.426;37.756;2023-04-16T00:20:05;100917.81;;;3.65;30.10
42671;BME280;28283;55.426;37.756;2023-04-16T00:25:05;100912.84;;;3.60;30.49
42671;BME280;28283;55.426;37.756;2023-04-16T00:30:06;100914.88;;;3.57;30.88
42671;BME280;28283;55.426;37.756;2023-04-16T00:35:06;100924.06;;;3.53;30.21
42671;BME280;28283;55.426;37.756;2023-04-16T00:40:07;100920.78;;;3.49;30.68
42671;BME280;28283;55.426;37.756;2023-04-16T00:45:08;100917.28;;;3.49;29.95
42671;BME280;28283;55.426;37.756;2023-04-16T00:50:09;100917.53;;;3.46;30.92
42671;BME280;28283;55.426;37.756;2023-04-16T00:55:10;100922.34;;;3.40;30.50
42671;BME280;28283;55.426;37.756;2023-04-16T01:00:12;100913.28;;;3.43;30.21
42671;BME280;28283;55.426;37.756;2023-04-16T01:05:13;100913.84;;;3.35;30.70
42671;BME280;28283;55.426;37.756;2023-04-16T01:10:13;100914.34;;;3.29;30.75
42671;BME280;28283;55.426;37.756;2023-04-16T01:15:14;100913.81;;;3.24;30.26
42671;BME280;28283;55.426;37.756;2023-04-16T01:20:14;100909.81;;;3.18;31.38
42671;BME280;28283;55.426;37.756;2023-04-16T01:25:15;100908.84;;;3.19;30.36
42671;BME280;28283;55.426;37.756;2023-04-16T01:30:15;100912.81;;;3.14;30.55
42671;BME280;28283;55.426;37.756;2023-04-16T01:35:16;100925.38;;;3.12;30.67
42671;BME280;28283;55.426;37.756;2023-04-16T01:40:17;100921.75;;;3.13;31.14
42671;BME280;28283;55.426;37.756;2023-04-16T01:45:18;100926.28;;;2.99;31.06
42671;BME280;28283;55.426;37.756;2023-04-16T01:50:18;100920.00;;;3.00;30.90
42671;BME280;28283;55.426;37.756;2023-04-16T01:55:19;100915.28;;;2.93;32.03
42671;BME280;28283;55.426;37.756;2023-04-16T02:00:20;100918.25;;;2.88;31.31
42671;BME280;28283;55.426;37.756;2023-04-16T02:05:20;100908.81;;;2.84;31.12
42671;BME280;28283;55.426;37.756;2023-04-16T02:10:21;100916.38;;;2.77;32.05
42671;BME280;28283;55.426;37.756;2023-04-16T02:15:21;100923.50;;;2.77;31.94
42671;BME280;28283;55.426;37.756;2023-04-16T02:20:24;100919.78;;;2.79;31.65
42671;BME280;28283;55.426;37.756;2023-04-16T02:25:25;100913.09;;;2.74;32.39
42671;BME280;28283;55.426;37.756;2023-04-16T02:30:26;100926.84;;;2.67;32.64
42671;BME280;28283;55.426;37.756;2023-04-16T02:35:26;100929.81;;;2.63;32.24
42671;BME280;28283;55.426;37.756;2023-04-16T02:40:27;100923.16;;;2.57;32.37
42671;BME280;28283;55.426;37.756;2023-04-16T02:45:27;100927.00;;;2.53;32.57
42671;BME280;28283;55.426;37.756;2023-04-16T02:50:30;100928.03;;;2.51;32.66
42671;BME280;28283;55.426;37.756;2023-04-16T02:55:31;100930.69;;;2.51;32.99
42671;BME280;28283;55.426;37.756;2023-04-16T03:00:31;100920.28;;;2.47;32.69
42671;BME280;28283;55.426;37.756;2023-04-16T03:05:31;100930.81;;;2.49;33.05
42671;BME280;28283;55.426;37.756;2023-04-16T03:10:34;100930.91;;;2.47;33.21
42671;BME280;28283;55.426;37.756;2023-04-16T03:15:35;100931.78;;;2.48;33.13
42671;BME280;28283;55.426;37.756;2023-04-16T03:20:35;100932.63;;;2.48;33.18
42671;BME280;28283;55.426;37.756;2023-04-16T03:25:36;100931.78;;;2.48;32.89
42671;BME280;28283;55.426;37.756;2023-04-16T03:30:39;100934.94;;;2.53;33.90
42671;BME280;28283;55.426;37.756;2023-04-16T03:35:40;100929.66;;;2.53;33.36
42671;BME280;28283;55.426;37.756;2023-04-16T03:40:40;100929.66;;;2.53;33.79
42671;BME280;28283;55.426;37.756;2023-04-16T03:45:44;100935.84;;;2.65;33.99
42671;BME280;28283;55.426;37.756;2023-04-16T03:50:45;100935.22;;;2.61;34.12
42671;BME280;28283;55.426;37.756;2023-04-16T03:55:48;100935.81;;;2.78;33.51
42671;BME280;28283;55.426;37.756;2023-04-16T04:00:51;100937.78;;;2.87;33.93
42671;BME280;28283;55.426;37.756;2023-04-16T04:05:52;100934.13;;;3.01;33.33
42671;BME280;28283;55.426;37.756;2023-04-16T04:10:52;100934.94;;;3.14;34.03
42671;BME280;28283;55.426;37.756;2023-04-16T04:15:53;100923.66;;;3.35;33.36
42671;BME280;28283;55.426;37.756;2023-04-16T04:20:53;100932.66;;;3.56;33.46
42671;BME280;28283;55.426;37.756;2023-04-16T04:25:54;100940.09;;;3.87;33.45
42671;BME280;28283;55.426;37.756;2023-04-16T04:30:56;100938.19;;;4.11;32.98
42671;BME280;28283;55.426;37.756;2023-04-16T04:35:57;100939.88;;;4.35;33.04
42671;BME280;28283;55.426;37.756;2023-04-16T04:40:57;100935.38;;;4.47;32.87
42671;BME280;28283;55.426;37.756;2023-04-16T04:45:58;100931.16;;;4.55;32.74
42671;BME280;28283;55.426;37.756;2023-04-16T04:50:59;100937.06;;;4.70;32.63
42671;BME280;28283;55.426;37.756;2023-04-16T04:56:00;100940.31;;;4.85;32.53
42671;BME280;28283;55.426;37.756;2023-04-16T05:01:00;100942.44;;;5.03;32.24
42671;BME280;28283;55.426;37.756;2023-04-16T05:06:01;100940.22;;;5.08;32.48
42671;BME280;28283;55.426;37.756;2023-04-16T05:11:01;100935.03;;;5.39;32.11
42671;BME280;28283;55.426;37.756;2023-04-16T05:16:02;100944.22;;;5.67;32.08
42671;BME280;28283;55.426;37.756;2023-04-16T05:21:02;100940.44;;;5.90;32.06
42671;BME280;28283;55.426;37.756;2023-04-16T05:26:03;100938.56;;;6.02;31.98
42671;BME280;28283;55.426;37.756;2023-04-16T05:31:03;100934.72;;;6.26;31.87
42671;BME280;28283;55.426;37.756;2023-04-16T05:36:04;100936.72;;;6.74;30.91
42671;BME280;28283;55.426;37.756;2023-04-16T05:41:05;100924.97;;;7.25;30.56
42671;BME280;28283;55.426;37.756;2023-04-16T05:46:05;100930.31;;;7.64;30.45
42671;BME280;28283;55.426;37.756;2023-04-16T05:51:06;100922.50;;;7.91;29.70
42671;BME280;28283;55.426;37.756;2023-04-16T05:56:06;100925.25;;;8.18;30.27
42671;BME280;28283;55.426;37.756;2023-04-16T06:01:07;100920.94;;;8.35;30.58
42671;BME280;28283;55.426;37.756;2023-04-16T06:06:07;100926.84;;;8.67;29.78
42671;BME280;28283;55.426;37.756;2023-04-16T06:11:08;100938.13;;;8.98;29.63
42671;BME280;28283;55.426;37.756;2023-04-16T06:16:09;100933.53;;;9.08;28.79
42671;BME280;28283;55.426;37.756;2023-04-16T06:21:09;100935.75;;;9.13;28.53
42671;BME280;28283;55.426;37.756;2023-04-16T06:26:10;100918.56;;;9.42;29.07
42671;BME280;28283;55.426;37.756;2023-04-16T06:31:10;100935.78;;;9.75;28.62
42671;BME280;28283;55.426;37.756;2023-04-16T06:36:11;100926.78;;;9.84;28.34
42671;BME280;28283;55.426;37.756;2023-04-16T06:41:12;100916.22;;;10.17;27.77
42671;BME280;28283;55.426;37.756;2023-04-16T06:46:13;100904.44;;;10.36;27.68
42671;BME280;28283;55.426;37.756;2023-04-16T06:51:13;100903.00;;;10.58;27.49
42671;BME280;28283;55.426;37.756;2023-04-16T06:56:14;100913.78;;;10.66;26.35
42671;BME280;28283;55.426;37.756;2023-04-16T07:01:15;100906.03;;;10.63;27.44
42671;BME280;28283;55.426;37.756;2023-04-16T07:06:16;100910.34;;;10.48;25.93
42671;BME280;28283;55.426;37.756;2023-04-16T07:11:17;100911.38;;;10.47;27.16
42671;BME280;28283;55.426;37.756;2023-04-16T07:16:18;100912.03;;;10.49;27.32
42671;BME280;28283;55.426;37.756;2023-04-16T07:21:18;100901.69;;;10.70;27.06
42671;BME280;28283;55.426;37.756;2023-04-16T07:26:20;100906.59;;;10.83;26.29
42671;BME280;28283;55.426;37.756;2023-04-16T07:31:20;100900.91;;;10.86;26.64
42671;BME280;28283;55.426;37.756;2023-04-16T07:36:21;100906.59;;;10.83;24.80
42671;BME280;28283;55.426;37.756;2023-04-16T07:41:21;100913.66;;;10.93;26.13
42671;BME280;28283;55.426;37.756;2023-04-16T07:46:22;100904.97;;;10.99;24.66
42671;BME280;28283;55.426;37.756;2023-04-16T07:51:22;100906.16;;;11.21;26.26
42671;BME280;28283;55.426;37.756;2023-04-16T07:56:23;100886.00;;;11.41;26.33
42671;BME280;28283;55.426;37.756;2023-04-16T08:01:23;100889.00;;;11.38;25.28
42671;BME280;28283;55.426;37.756;2023-04-16T08:06:24;100881.91;;;11.62;24.90
42671;BME280;28283;55.426;37.756;2023-04-16T08:11:25;100878.03;;;11.64;23.75
42671;BME280;28283;55.426;37.756;2023-04-16T08:16:26;100879.06;;;11.55;23.80
42671;BME280;28283;55.426;37.756;2023-04-16T08:21:26;100870.94;;;11.72;22.92
42671;BME280;28283;55.426;37.756;2023-04-16T08:26:27;100867.75;;;11.84;23.38
42671;BME280;28283;55.426;37.756;2023-04-16T08:31:27;100865.06;;;11.93;22.72
42671;BME280;28283;55.426;37.756;2023-04-16T08:36:28;100863.50;;;12.07;20.00
42671;BME280;28283;55.426;37.756;2023-04-16T08:41:49;100855.53;;;12.21;22.42
42671;BME280;28283;55.426;37.756;2023-04-16T08:46:49;100842.81;;;12.38;22.04
42671;BME280;28283;55.426;37.756;2023-04-16T08:51:52;100844.28;;;12.49;21.25
42671;BME280;28283;55.426;37.756;2023-04-16T08:56:52;100837.47;;;12.62;20.71
42671;BME280;28283;55.426;37.756;2023-04-16T09:01:57;100841.53;;;12.57;20.88
42671;BME280;28283;55.426;37.756;2023-04-16T09:06:58;100828.13;;;12.72;20.17
42671;BME280;28283;55.426;37.756;2023-04-16T09:11:58;100820.56;;;12.68;21.55
42671;BME280;28283;55.426;37.756;2023-04-16T09:17:02;100826.19;;;12.81;19.23
42671;BME280;28283;55.426;37.756;2023-04-16T09:22:03;100831.13;;;13.01;20.28
42671;BME280;28283;55.426;37.756;2023-04-16T09:27:03;100834.53;;;13.17;21.72
42671;BME280;28283;55.426;37.756;2023-04-16T09:32:05;100828.66;;;13.14;20.91
42671;BME280;28283;55.426;37.756;2023-04-16T09:37:17;100826.50;;;13.09;20.93
42671;BME280;28283;55.426;37.756;2023-04-16T09:42:25;100825.97;;;13.14;20.03
42671;BME280;28283;55.426;37.756;2023-04-16T09:47:37;100818.50;;;13.16;20.47
42671;BME280;28283;55.426;37.756;2023-04-16T09:52:38;100821.44;;;13.06;20.62
42671;BME280;28283;55.426;37.756;2023-04-16T09:57:39;100810.16;;;13.26;19.41
42671;BME280;28283;55.426;37.756;2023-04-16T10:02:39;100805.66;;;13.56;20.38
42671;BME280;28283;55.426;37.756;2023-04-16T10:07:41;100808.00;;;13.89;20.43
42671;BME280;28283;55.426;37.756;2023-04-16T10:12:41;100797.81;;;14.21;20.20
42671;BME280;28283;55.426;37.756;2023-04-16T10:17:42;100794.47;;;14.70;19.05
42671;BME280;28283;55.426;37.756;2023-04-16T10:22:43;100796.97;;;14.57;18.54
42671;BME280;28283;55.426;37.756;2023-04-16T10:27:44;100795.28;;;14.70;19.38
42671;BME280;28283;55.426;37.756;2023-04-16T10:32:44;100801.97;;;14.96;19.33
42671;BME280;28283;55.426;37.756;2023-04-16T10:37:45;100757.84;;;14.74;18.82
42671;BME280;28283;55.426;37.756;2023-04-16T10:42:56;100786.06;;;15.36;18.44
42671;BME280;28283;55.426;37.756;2023-04-16T10:47:56;100783.13;;;15.66;19.29
42671;BME280;28283;55.426;37.756;2023-04-16T10:53:19;100773.13;;;16.01;19.15
42671;BME280;28283;55.426;37.756;2023-04-16T10:58:31;100774.75;;;16.44;18.61
42671;BME280;28283;55.426;37.756;2023-04-16T11:03:34;100773.91;;;16.44;17.55
42671;BME280;28283;55.426;37.756;2023-04-16T11:08:34;100768.09;;;16.53;18.16
42671;BME280;28283;55.426;37.756;2023-04-16T11:13:35;100761.22;;;16.77;17.32
42671;BME280;28283;55.426;37.756;2023-04-16T11:18:37;100770.66;;;16.88;18.24
42671;BME280;28283;55.426;37.756;2023-04-16T11:23:49;100752.09;;;17.05;18.58
42671;BME280;28283;55.426;37.756;2023-04-16T11:28:50;100755.78;;;17.44;15.88
42671;BME280;28283;55.426;37.756;2023-04-16T11:33:51;100743.09;;;17.05;15.60
42671;BME280;28283;55.426;37.756;2023-04-16T11:38:51;100739.13;;;17.07;16.17
42671;BME280;28283;55.426;37.756;2023-04-16T11:44:00;100743.16;;;17.83;17.61
42671;BME280;28283;55.426;37.756;2023-04-16T11:49:15;100733.59;;;18.19;16.03
42671;BME280;28283;55.426;37.756;2023-04-16T11:54:18;100723.13;;;18.55;17.05
42671;BME280;28283;55.426;37.756;2023-04-16T11:59:21;100724.88;;;19.06;16.76
42671;BME280;28283;55.426;37.756;2023-04-16T12:04:25;100712.13;;;19.00;15.75
42671;BME280;28283;55.426;37.756;2023-04-16T12:09:25;100705.06;;;18.60;15.87
42671;BME280;28283;55.426;37.756;2023-04-16T12:14:29;100704.91;;;18.55;16.39
42671;BME280;28283;55.426;37.756;2023-04-16T12:19:29;100704.25;;;18.28;15.59
42671;BME280;28283;55.426;37.756;2023-04-16T12:24:30;100692.50;;;18.34;16.12
42671;BME280;28283;55.426;37.756;2023-04-16T12:29:33;100698.50;;;18.43;16.44
42671;BME280;28283;55.426;37.756;2023-04-16T12:34:43;100687.13;;;18.21;15.29
42671;BME280;28283;55.426;37.756;2023-04-16T12:39:49;100681.63;;;17.89;16.98
42671;BME280;28283;55.426;37.756;2023-04-16T12:44:49;100673.00;;;17.47;16.79
42671;BME280;28283;55.426;37.756;2023-04-16T12:49:50;100664.53;;;16.70;16.87
42671;BME280;28283;55.426;37.756;2023-04-16T12:54:51;100671.19;;;16.40;17.28
42671;BME280;28283;55.426;37.756;2023-04-16T12:59:52;100674.31;;;16.31;17.54
42671;BME280;28283;55.426;37.756;2023-04-16T13:04:52;100663.47;;;16.51;17.32
42671;BME280;28283;55.426;37.756;2023-04-16T13:09:53;100648.03;;;16.45;17.32
42671;BME280;28283;55.426;37.756;2023-04-16T13:14:56;100645.31;;;16.38;17.35
42671;BME280;28283;55.426;37.756;2023-04-16T13:19:57;100636.94;;;16.06;17.14
42671;BME280;28283;55.426;37.756;2023-04-16T13:24:57;100645.84;;;15.93;17.01
42671;BME280;28283;55.426;37.756;2023-04-16T13:29:58;100629.94;;;15.77;17.34
42671;BME280;28283;55.426;37.756;2023-04-16T13:34:59;100625.31;;;15.71;17.20
42671;BME280;28283;55.426;37.756;2023-04-16T13:39:59;100624.63;;;15.55;17.37
42671;BME280;28283;55.426;37.756;2023-04-16T13:44:59;100621.84;;;15.35;17.96
42671;BME280;28283;55.426;37.756;2023-04-16T13:50:00;100613.94;;;15.40;17.67
42671;BME280;28283;55.426;37.756;2023-04-16T13:55:01;100601.41;;;15.39;17.29
42671;BME280;28283;55.426;37.756;2023-04-16T14:00:02;100603.53;;;15.44;17.39
42671;BME280;28283;55.426;37.756;2023-04-16T14:05:02;100612.00;;;15.27;17.49
42671;BME280;28283;55.426;37.756;2023-04-16T14:10:03;100592.84;;;15.29;17.61
42671;BME280;28283;55.426;37.756;2023-04-16T14:15:07;100611.78;;;15.22;17.37
42671;BME280;28283;55.426;37.756;2023-04-16T14:20:09;100592.41;;;15.25;17.65
42671;BME280;28283;55.426;37.756;2023-04-16T14:25:09;100602.16;;;15.20;17.69
42671;BME280;28283;55.426;37.756;2023-04-16T14:30:10;100593.97;;;15.06;17.54
42671;BME280;28283;55.426;37.756;2023-04-16T14:35:10;100594.25;;;14.83;17.88
42671;BME280;28283;55.426;37.756;2023-04-16T14:40:11;100594.69;;;14.59;17.65
42671;BME280;28283;55.426;37.756;2023-04-16T14:45:12;100588.91;;;14.40;17.77
42671;BME280;28283;55.426;37.756;2023-04-16T14:50:12;100578.59;;;14.50;17.46
42671;BME280;28283;55.426;37.756;2023-04-16T14:55:13;100586.81;;;14.36;18.01
42671;BME280;28283;55.426;37.756;2023-04-16T15:00:14;100583.56;;;14.47;18.11
42671;BME280;28283;55.426;37.756;2023-04-16T15:05:17;100584.16;;;14.42;17.76
42671;BME280;28283;55.426;37.756;2023-04-16T15:10:18;100577.38;;;14.25;18.61
42671;BME280;28283;55.426;37.756;2023-04-16T15:15:18;100577.03;;;14.13;18.23
42671;BME280;28283;55.426;37.756;2023-04-16T15:20:19;100571.50;;;14.00;18.30
42671;BME280;28283;55.426;37.756;2023-04-16T15:25:19;100584.06;;;13.86;18.19
42671;BME280;28283;55.426;37.756;2023-04-16T15:30:20;100577.75;;;13.79;18.16
42671;BME280;28283;55.426;37.756;2023-04-16T15:35:20;100578.50;;;13.72;18.60
42671;BME280;28283;55.426;37.756;2023-04-16T15:40:21;100571.53;;;13.63;18.41
42671;BME280;28283;55.426;37.756;2023-04-16T15:45:21;100578.75;;;13.56;18.36
42671;BME280;28283;55.426;37.756;2023-04-16T15:50:22;100574.84;;;13.44;19.17
42671;BME280;28283;55.426;37.756;2023-04-16T15:55:22;100575.63;;;13.38;19.23
42671;BME280;28283;55.426;37.756;2023-04-16T16:00:22;100582.13;;;13.28;19.79
42671;BME280;28283;55.426;37.756;2023-04-16T16:05:23;100589.50;;;13.20;19.34
42671;BME280;28283;55.426;37.756;2023-04-16T16:10:24;100580.28;;;13.14;19.37
42671;BME280;28283;55.426;37.756;2023-04-16T16:15:25;100577.13;;;13.10;19.53
42671;BME280;28283;55.426;37.756;2023-04-16T16:20:26;100573.09;;;13.06;19.97
42671;BME280;28283;55.426;37.756;2023-04-16T16:25:27;100583.84;;;12.99;19.34
42671;BME280;28283;55.426;37.756;2023-04-16T16:30:29;100576.00;;;12.90;20.13
42671;BME280;28283;55.426;37.756;2023-04-16T16:35:30;100573.78;;;12.78;20.28
42671;BME280;28283;55.426;37.756;2023-04-16T16:40:31;100573.84;;;12.70;20.38
42671;BME280;28283;55.426;37.756;2023-04-16T16:45:31;100582.88;;;12.63;20.34
42671;BME280;28283;55.426;37.756;2023-04-16T16:50:32;100577.56;;;12.54;20.01
42671;BME280;28283;55.426;37.756;2023-04-16T16:55:32;100583.38;;;12.43;20.63
42671;BME280;28283;55.426;37.756;2023-04-16T17:00:34;100581.78;;;12.34;21.11
42671;BME280;28283;55.426;37.756;2023-04-16T17:05:35;100589.59;;;12.29;20.96
42671;BME280;28283;55.426;37.756;2023-04-16T17:10:35;100590.31;;;12.22;20.76
42671;BME280;28283;55.426;37.756;2023-04-16T17:15:36;100582.66;;;12.11;20.67
42671;BME280;28283;55.426;37.756;2023-04-16T17:20:36;100589.44;;;12.07;21.16
42671;BME280;28283;55.426;37.756;2023-04-16T17:25:37;100587.47;;;12.01;21.31
42671;BME280;28283;55.426;37.756;2023-04-16T17:30:37;100594.59;;;11.94;21.93
42671;BME280;28283;55.426;37.756;2023-04-16T17:35:38;100598.13;;;11.86;21.59
42671;BME280;28283;55.426;37.756;2023-04-16T17:40:39;100591.28;;;11.75;21.46
42671;BME280;28283;55.426;37.756;2023-04-16T17:45:40;100580.59;;;11.67;21.74
42671;BME280;28283;55.426;37.756;2023-04-16T17:50:40;100577.94;;;11.59;21.56
42671;BME280;28283;55.426;37.756;2023-04-16T17:55:48;100576.97;;;11.52;21.78
42671;BME280;28283;55.426;37.756;2023-04-16T18:00:49;100582.03;;;11.46;22.15
42671;BME280;28283;55.426;37.756;2023-04-16T18:05:49;100569.94;;;11.42;21.84
42671;BME280;28283;55.426;37.756;2023-04-16T18:10:50;100579.56;;;11.37;21.85
42671;BME280;28283;55.426;37.756;2023-04-16T18:15:51;100571.00;;;11.33;22.24
42671;BME280;28283;55.426;37.756;2023-04-16T18:20:52;100572.91;;;11.24;21.95
42671;BME280;28283;55.426;37.756;2023-04-16T18:25:52;100569.06;;;11.19;22.28
42671;BME280;28283;55.426;37.756;2023-04-16T18:30:53;100563.91;;;11.09;22.40
42671;BME280;28283;55.426;37.756;2023-04-16T18:35:54;100563.94;;;11.01;22.39
42671;BME280;28283;55.426;37.756;2023-04-16T18:40:55;100565.13;;;10.90;22.11
42671;BME280;28283;55.426;37.756;2023-04-16T18:45:56;100563.16;;;10.84;22.66
42671;BME280;28283;55.426;37.756;2023-04-16T18:50:56;100562.66;;;10.80;22.53
42671;BME280;28283;55.426;37.756;2023-04-16T18:55:57;100559.50;;;10.68;22.84
42671;BME280;28283;55.426;37.756;2023-04-16T19:01:00;100556.47;;;10.63;22.83
42671;BME280;28283;55.426;37.756;2023-04-16T19:06:02;100550.28;;;10.55;22.79
42671;BME280;28283;55.426;37.756;2023-04-16T19:11:02;100557.50;;;10.46;22.82
42671;BME280;28283;55.426;37.756;2023-04-16T19:16:23;100557.69;;;10.36;22.87
42671;BME280;28283;55.426;37.756;2023-04-16T19:21:23;100555.84;;;10.28;23.03
42671;BME280;28283;55.426;37.756;2023-04-16T19:26:24;100539.03;;;10.18;23.14
42671;BME280;28283;55.426;37.756;2023-04-16T19:31:24;100547.44;;;10.07;23.39
42671;BME280;28283;55.426;37.756;2023-04-16T19:36:25;100551.13;;;9.98;23.52
42671;BME280;28283;55.426;37.756;2023-04-16T19:41:26;100552.78;;;9.90;23.66
42671;BME280;28283;55.426;37.756;2023-04-16T19:46:26;100546.41;;;9.83;23.58
42671;BME280;28283;55.426;37.756;2023-04-16T19:51:27;100527.09;;;9.63;23.64
42671;BME280;28283;55.426;37.756;2023-04-16T19:56:28;100559.34;;;9.71;23.98
42671;BME280;28283;55.426;37.756;2023-04-16T20:01:28;100556.78;;;9.62;23.86
42671;BME280;28283;55.426;37.756;2023-04-16T20:06:32;100549.56;;;9.54;24.23
42671;BME280;28283;55.426;37.756;2023-04-16T20:11:32;100554.25;;;9.44;24.08
42671;BME280;28283;55.426;37.756;2023-04-16T20:16:34;100559.59;;;9.35;23.95
42671;BME280;28283;55.426;37.756;2023-04-16T20:21:37;100547.34;;;9.33;24.38
42671;BME280;28283;55.426;37.756;2023-04-16T20:26:39;100551.16;;;9.22;24.01
42671;BME280;28283;55.426;37.756;2023-04-16T20:31:40;100543.94;;;9.14;24.59
42671;BME280;28283;55.426;37.756;2023-04-16T20:36:41;100547.06;;;9.02;24.79
42671;BME280;28283;55.426;37.756;2023-04-16T20:41:42;100548.25;;;8.99;24.76
42671;BME280;28283;55.426;37.756;2023-04-16T20:46:43;100539.78;;;8.86;25.07
42671;BME280;28283;55.426;37.756;2023-04-16T20:51:48;100541.75;;;8.75;25.20
42671;BME280;28283;55.426;37.756;2023-04-16T20:56:49;100538.06;;;8.76;24.56
42671;BME280;28283;55.426;37.756;2023-04-16T21:01:49;100545.06;;;8.69;24.87
42671;BME280;28283;55.426;37.756;2023-04-16T21:06:51;100547.31;;;8.56;24.92
42671;BME280;28283;55.426;37.756;2023-04-16T21:11:52;100554.16;;;8.50;25.76
42671;BME280;28283;55.426;37.756;2023-04-16T21:16:53;100545.44;;;8.48;25.14
